createdAt,value
2018-02-07T00:00:58.340Z,75.00
2018-02-07T00:03:27.221Z,75.10
2018-02-07T00:05:55.346Z,75.10
2018-02-07T00:08:23.453Z,75.20
2018-02-07T00:10:51.590Z,75.40
2018-02-07T00:13:19.712Z,75.70
2018-02-07T00:15:47.834Z,75.60
2018-02-07T00:18:15.943Z,75.50
2018-02-07T00:20:44.091Z,75.50
2018-02-07T00:23:12.199Z,75.50
2018-02-07T00:25:40.319Z,75.40
2018-02-07T00:28:08.426Z,74.90
2018-02-07T00:30:36.579Z,75.10
2018-02-07T00:33:04.694Z,75.10
2018-02-07T00:35:33.592Z,74.80
2018-02-07T00:38:02.464Z,74.00
2018-02-07T00:40:30.604Z,73.90
2018-02-07T00:42:58.713Z,73.90
2018-02-07T00:45:26.843Z,74.50
2018-02-07T00:47:54.947Z,74.70
2018-02-07T00:50:23.058Z,74.40
2018-02-07T00:52:51.195Z,74.90
2018-02-07T00:55:19.308Z,74.90
2018-02-07T00:57:47.430Z,74.50
2018-02-07T01:00:15.547Z,74.50
2018-02-07T01:02:43.678Z,75.10
2018-02-07T01:05:11.797Z,75.10
2018-02-07T01:07:40.681Z,75.00
2018-02-07T01:10:09.555Z,74.90
2018-02-07T01:12:37.691Z,74.90
2018-02-07T01:15:05.801Z,75.50
2018-02-07T01:17:33.925Z,75.60
2018-02-07T01:20:02.040Z,75.80
2018-02-07T01:22:30.183Z,75.70
2018-02-07T01:24:58.306Z,75.70
2018-02-07T01:27:27.194Z,75.70
2018-02-07T01:29:56.063Z,76.20
2018-02-07T01:32:24.208Z,76.20
2018-02-07T01:34:52.317Z,75.60
2018-02-07T01:37:20.466Z,75.70
2018-02-07T01:39:48.574Z,75.40
2018-02-07T01:42:17.470Z,75.80
2018-02-07T01:44:46.344Z,75.40
2018-02-07T01:47:14.479Z,75.40
2018-02-07T01:49:42.594Z,75.00
2018-02-07T01:52:10.715Z,74.80
2018-02-07T01:54:38.826Z,75.10
2018-02-07T01:57:06.949Z,74.70
2018-02-07T01:59:35.056Z,74.50
2018-02-07T02:02:03.187Z,74.00
2018-02-07T02:04:31.290Z,74.00
2018-02-07T02:06:59.415Z,74.00
2018-02-07T02:09:28.294Z,74.90
2018-02-07T02:11:57.190Z,75.40
2018-02-07T02:14:26.066Z,75.10
2018-02-07T02:16:54.206Z,75.10
2018-02-07T02:19:22.381Z,75.10
2018-02-07T02:21:50.478Z,74.30
2018-02-07T02:24:18.595Z,74.70
2018-02-07T02:26:46.757Z,73.90
2018-02-07T02:29:15.627Z,73.30
2018-02-07T02:31:43.764Z,73.30
2018-02-07T02:34:11.881Z,73.80
2018-02-07T02:36:40.846Z,74.50
2018-02-07T02:39:08.949Z,74.10
2018-02-07T02:41:37.840Z,75.10
2018-02-07T02:44:06.717Z,74.80
2018-02-07T02:46:34.864Z,74.80
2018-02-07T02:49:03.026Z,74.80
2018-02-07T02:51:31.184Z,75.00
2018-02-07T02:53:59.282Z,75.20
2018-02-07T02:56:27.418Z,75.80
2018-02-07T02:58:55.522Z,75.60
2018-02-07T03:01:23.678Z,75.40
2018-02-07T03:03:51.782Z,75.30
2018-02-07T03:06:19.907Z,75.10
2018-02-07T03:08:48.039Z,74.30
2018-02-07T03:11:16.163Z,75.30
2018-02-07T03:13:44.297Z,76.40
2018-02-07T03:16:12.398Z,76.50
2018-02-07T03:18:40.524Z,76.80
2018-02-07T03:21:08.626Z,75.60
2018-02-07T03:23:37.530Z,75.10
2018-02-07T03:26:05.643Z,75.00
2018-02-07T03:28:33.786Z,74.50
2018-02-07T03:31:01.889Z,75.00
2018-02-07T03:33:30.015Z,75.90
2018-02-07T03:35:58.887Z,75.50
2018-02-07T03:38:27.027Z,75.50
2018-02-07T03:40:55.146Z,75.50
2018-02-07T03:43:24.043Z,75.00
2018-02-07T03:45:52.920Z,75.10
2018-02-07T03:48:21.050Z,75.10
2018-02-07T03:50:49.151Z,74.20
2018-02-07T03:53:17.286Z,74.50
2018-02-07T03:55:45.398Z,75.10
2018-02-07T03:58:13.530Z,75.40
2018-02-07T04:00:41.643Z,75.30
2018-02-07T04:03:09.783Z,75.30
2018-02-07T04:05:37.895Z,75.00
2018-02-07T04:08:06.030Z,74.40
2018-02-07T04:10:34.135Z,75.70
2018-02-07T04:13:02.273Z,75.90
2018-02-07T04:15:30.395Z,75.60
2018-02-07T04:17:59.299Z,75.30
2018-02-07T04:20:28.180Z,76.10
2018-02-07T04:22:57.078Z,74.80
2018-02-07T04:25:25.957Z,75.20
2018-02-07T04:27:54.091Z,75.20
2018-02-07T04:30:22.652Z,75.90
2018-02-07T04:32:51.835Z,75.30
2018-02-07T04:35:19.938Z,75.30
2018-02-07T04:37:48.095Z,75.80
2018-02-07T04:40:16.354Z,75.60
2018-02-07T04:42:44.531Z,75.50
2018-02-07T04:45:13.405Z,75.50
2018-02-07T04:47:41.537Z,76.20
2018-02-07T04:50:09.630Z,75.80
2018-02-07T04:52:37.754Z,73.90
2018-02-07T04:55:05.850Z,73.40
2018-02-07T04:57:34.007Z,73.70
2018-02-07T05:00:02.115Z,74.60
2018-02-07T05:02:36.875Z,74.00
2018-02-07T05:05:05.742Z,74.60
2018-02-07T05:07:33.881Z,74.40
2018-02-07T05:10:01.992Z,73.40
2018-02-07T05:12:30.111Z,73.90
2018-02-07T05:14:58.218Z,74.20
2018-02-07T05:17:26.357Z,73.40
2018-02-07T05:19:54.464Z,73.20
2018-02-07T05:22:22.599Z,72.40
2018-02-07T05:24:50.715Z,73.20
2018-02-07T05:27:18.837Z,74.10
2018-02-07T05:29:47.706Z,73.10
2018-02-07T05:32:15.834Z,73.10
2018-02-07T05:34:43.942Z,73.90
2018-02-07T05:37:12.083Z,73.80
2018-02-07T05:39:40.190Z,74.70
2018-02-07T05:42:14.039Z,75.10
2018-02-07T05:44:42.143Z,75.00
2018-02-07T05:47:10.252Z,75.10
2018-02-07T05:49:38.383Z,74.30
2018-02-07T05:52:06.495Z,74.40
2018-02-07T05:54:34.619Z,73.40
2018-02-07T05:57:02.719Z,73.10
2018-02-07T05:59:30.851Z,73.10
2018-02-07T06:01:58.949Z,73.00
2018-02-07T06:04:27.079Z,72.70
2018-02-07T06:06:55.961Z,72.40
2018-02-07T06:09:24.107Z,72.40
2018-02-07T06:11:52.242Z,71.40
2018-02-07T06:14:20.378Z,70.40
2018-02-07T06:16:48.521Z,69.50
2018-02-07T06:19:16.656Z,69.30
2018-02-07T06:21:44.763Z,68.60
2018-02-07T06:24:12.892Z,67.50
2018-02-07T06:26:41.778Z,69.90
2018-02-07T06:29:10.687Z,70.30
2018-02-07T06:31:39.705Z,69.20
2018-02-07T06:34:07.881Z,69.10
2018-02-07T06:36:36.010Z,68.20
2018-02-07T06:39:05.755Z,68.20
2018-02-07T06:41:33.871Z,68.20
2018-02-07T06:44:02.033Z,68.90
2018-02-07T06:46:30.139Z,70.10
2018-02-07T06:48:59.052Z,70.00
2018-02-07T06:51:27.167Z,69.90
2018-02-07T06:53:55.306Z,71.50
2018-02-07T06:56:23.423Z,72.90
2018-02-07T06:58:51.578Z,73.20
2018-02-07T07:01:19.718Z,73.40
2018-02-07T07:03:47.851Z,73.90
2018-02-07T07:06:15.961Z,74.20
2018-02-07T07:08:44.106Z,74.70
2018-02-07T07:11:12.220Z,75.00
2018-02-07T07:13:40.368Z,74.70
2018-02-07T07:16:09.245Z,74.80
2018-02-07T07:18:37.406Z,74.70
2018-02-07T07:21:05.519Z,73.60
2018-02-07T07:23:33.660Z,74.40
2018-02-07T07:26:01.777Z,75.00
2018-02-07T07:28:29.906Z,74.50
2018-02-07T07:30:58.085Z,73.80
2018-02-07T07:33:26.215Z,74.00
2018-02-07T07:35:54.342Z,73.60
2018-02-07T07:38:23.247Z,72.80
2018-02-07T07:40:51.360Z,72.70
2018-02-07T07:43:20.294Z,73.70
2018-02-07T07:45:48.405Z,73.70
2018-02-07T07:48:16.539Z,72.70
2018-02-07T07:50:45.430Z,71.50
2018-02-07T07:53:14.340Z,72.10
2018-02-07T07:55:42.455Z,72.10
2018-02-07T07:58:10.603Z,72.60
2018-02-07T08:00:38.715Z,72.40
2018-02-07T08:03:06.831Z,72.50
2018-02-07T08:05:35.023Z,72.70
2018-02-07T08:08:03.198Z,72.50
2018-02-07T08:10:31.343Z,72.10
2018-02-07T08:13:00.235Z,72.10
2018-02-07T08:15:29.878Z,70.30
2018-02-07T08:17:58.001Z,70.20
2018-02-07T08:20:26.157Z,69.40
2018-02-07T08:22:54.275Z,70.30
2018-02-07T08:25:22.403Z,71.70
2018-02-07T08:27:50.522Z,72.40
2018-02-07T08:30:18.757Z,71.50
2018-02-07T08:32:46.869Z,71.70
2018-02-07T08:35:14.996Z,71.70
2018-02-07T08:37:43.132Z,71.40
2018-02-07T08:40:11.284Z,71.10
2018-02-07T08:42:40.868Z,70.00
2018-02-07T08:45:09.788Z,69.50
2018-02-07T08:47:37.921Z,69.50
2018-02-07T08:50:06.054Z,69.70
2018-02-07T08:52:34.166Z,68.70
2018-02-07T08:55:02.316Z,69.00
2018-02-07T08:57:30.413Z,68.20
2018-02-07T08:59:58.547Z,68.50
2018-02-07T09:02:26.662Z,68.70
2018-02-07T09:04:54.799Z,67.70
2018-02-07T09:07:22.911Z,66.80
2018-02-07T09:09:51.049Z,65.70
2018-02-07T09:12:19.150Z,65.70
2018-02-07T09:14:47.293Z,65.40
2018-02-07T09:17:15.408Z,64.80
2018-02-07T09:19:43.560Z,65.70
2018-02-07T09:22:11.669Z,64.80
2018-02-07T09:24:39.829Z,64.90
2018-02-07T09:27:08.725Z,63.20
2018-02-07T09:29:37.619Z,64.70
2018-02-07T09:32:06.521Z,64.10
2018-02-07T09:34:35.402Z,64.20
2018-02-07T09:37:04.282Z,63.70
2018-02-07T09:39:33.179Z,64.10
2018-02-07T09:42:02.071Z,63.10
2018-02-07T09:44:30.967Z,62.80
2018-02-07T09:46:59.846Z,63.90
2018-02-07T09:49:28.783Z,63.50
2018-02-07T09:52:03.456Z,63.20
2018-02-07T09:54:31.594Z,63.20
2018-02-07T09:56:59.737Z,62.40
2018-02-07T09:59:27.869Z,61.70
2018-02-07T10:01:55.985Z,61.80
2018-02-07T10:04:24.129Z,60.50
2018-02-07T10:06:52.249Z,60.80
2018-02-07T10:09:20.396Z,60.40
2018-02-07T10:11:48.513Z,60.00
2018-02-07T10:14:16.663Z,57.90
2018-02-07T10:16:44.787Z,57.60
2018-02-07T10:19:13.236Z,57.30
2018-02-07T10:21:41.374Z,58.70
2018-02-07T10:24:09.512Z,59.70
2018-02-07T10:26:38.397Z,59.30
2018-02-07T10:29:06.962Z,60.00
2018-02-07T10:34:09.599Z,58.60
2018-02-07T10:36:38.482Z,58.10
2018-02-07T10:39:07.440Z,58.80
2018-02-07T10:41:35.561Z,58.80
2018-02-07T10:44:04.444Z,59.00
2018-02-07T10:46:33.339Z,59.50
2018-02-07T10:49:02.225Z,59.10
2018-02-07T10:51:31.131Z,59.00
2018-02-07T10:53:59.253Z,59.00
2018-02-07T10:56:27.392Z,59.20
2018-02-07T10:58:55.530Z,58.70
2018-02-07T11:01:23.684Z,57.50
2018-02-07T11:03:51.800Z,57.50
2018-02-07T11:06:19.943Z,57.50
2018-02-07T11:08:48.069Z,56.70
2018-02-07T11:11:16.219Z,57.80
2018-02-07T11:13:44.329Z,58.70
2018-02-07T11:16:12.467Z,58.50
2018-02-07T11:18:40.575Z,58.50
2018-02-07T11:21:08.721Z,58.10
2018-02-07T11:23:36.844Z,58.30
2018-02-07T11:26:05.305Z,58.20
2018-02-07T11:28:33.413Z,59.00
2018-02-07T11:31:01.550Z,59.70
2018-02-07T11:33:29.675Z,59.60
2018-02-07T11:35:58.197Z,59.70
2018-02-07T11:38:26.308Z,60.00
2018-02-07T11:40:55.131Z,60.20
2018-02-07T11:43:23.991Z,58.10
2018-02-07T11:45:52.661Z,58.10
2018-02-07T11:48:20.780Z,55.70
2018-02-07T11:50:48.926Z,55.60
2018-02-07T11:53:17.040Z,55.20
2018-02-07T11:55:45.167Z,55.30
2018-02-07T11:58:13.275Z,55.80
2018-02-07T12:00:41.418Z,56.40
2018-02-07T12:03:09.533Z,56.80
2018-02-07T12:05:38.463Z,57.30
2018-02-07T12:08:06.589Z,57.30
2018-02-07T12:10:34.738Z,57.20
2018-02-07T12:13:03.684Z,55.50
2018-02-07T12:15:31.833Z,55.40
2018-02-07T12:17:59.949Z,54.70
2018-02-07T12:20:28.079Z,56.10
2018-02-07T12:22:56.223Z,56.80
2018-02-07T12:25:25.140Z,57.60
2018-02-07T12:27:53.250Z,57.50
2018-02-07T12:30:21.379Z,57.40
2018-02-07T12:32:50.250Z,58.20
2018-02-07T12:35:18.384Z,58.20
2018-02-07T12:37:46.499Z,58.80
2018-02-07T12:40:14.642Z,58.40
2018-02-07T12:42:42.762Z,59.40
2018-02-07T12:45:11.667Z,59.10
2018-02-07T12:47:39.790Z,59.10
2018-02-07T12:50:07.923Z,60.80
2018-02-07T12:52:36.039Z,62.30
2018-02-07T12:55:04.174Z,62.80
2018-02-07T12:57:32.283Z,63.20
2018-02-07T13:00:00.443Z,63.60
2018-02-07T13:02:28.596Z,64.60
2018-02-07T13:04:56.739Z,63.90
2018-02-07T13:07:25.611Z,63.80
2018-02-07T13:09:53.759Z,63.80
2018-02-07T13:12:22.646Z,62.70
2018-02-07T13:14:50.799Z,62.60
2018-02-07T13:17:18.925Z,62.50
2018-02-07T13:19:47.039Z,61.90
2018-02-07T13:22:15.180Z,61.40
2018-02-07T13:24:44.056Z,60.60
2018-02-07T13:27:12.202Z,60.80
2018-02-07T13:29:40.305Z,61.50
2018-02-07T13:32:08.459Z,61.90
2018-02-07T13:34:36.574Z,61.90
2018-02-07T13:37:04.710Z,62.20
2018-02-07T13:39:32.811Z,62.20
2018-02-07T13:42:00.946Z,61.60
2018-02-07T13:44:29.049Z,61.70
2018-02-07T13:46:57.198Z,62.00
2018-02-07T13:49:25.306Z,61.20
2018-02-07T13:51:53.442Z,61.60
2018-02-07T13:54:21.551Z,61.20
2018-02-07T13:56:49.689Z,62.10
2018-02-07T13:59:18.558Z,59.90
2018-02-07T14:01:46.703Z,59.90
2018-02-07T14:04:15.584Z,60.90
2018-02-07T14:06:43.820Z,60.90
2018-02-07T14:09:11.949Z,60.40
2018-02-07T14:11:40.845Z,61.80
2018-02-07T14:14:08.975Z,61.80
2018-02-07T14:16:37.131Z,61.80
2018-02-07T14:19:05.236Z,61.30
2018-02-07T14:21:33.367Z,61.90
2018-02-07T14:24:01.466Z,62.90
2018-02-07T14:26:29.604Z,64.90
2018-02-07T14:28:57.736Z,65.00
2018-02-07T14:31:25.899Z,66.10
2018-02-07T14:33:54.008Z,66.10
2018-02-07T14:36:22.137Z,65.80
2018-02-07T14:38:50.252Z,65.30
2018-02-07T14:41:18.598Z,64.00
2018-02-07T14:43:46.840Z,65.50
2018-02-07T14:46:15.756Z,65.30
2018-02-07T14:48:43.895Z,65.30
2018-02-07T14:51:12.050Z,65.20
2018-02-07T14:53:40.215Z,66.90
2018-02-07T14:56:08.336Z,65.50
2018-02-07T14:58:36.464Z,66.90
2018-02-07T15:01:15.330Z,66.50
2018-02-07T15:03:44.232Z,67.40
2018-02-07T15:06:13.152Z,66.40
2018-02-07T15:08:43.168Z,66.40
2018-02-07T15:11:11.335Z,65.40
2018-02-07T15:13:40.243Z,66.60
2018-02-07T15:16:08.383Z,66.50
2018-02-07T15:18:36.508Z,67.20
2018-02-07T15:21:04.647Z,67.70
2018-02-07T15:23:33.559Z,66.60
2018-02-07T15:26:01.704Z,66.60
2018-02-07T15:28:30.609Z,66.00
2018-02-07T15:30:58.750Z,65.90
2018-02-07T15:33:26.855Z,65.40
2018-02-07T15:35:55.014Z,65.40
2018-02-07T15:38:25.512Z,66.20
2018-02-07T15:41:06.026Z,66.10
2018-02-07T15:43:34.908Z,67.10
2018-02-07T15:46:03.861Z,67.30
2018-02-07T15:48:32.302Z,67.00
2018-02-07T15:51:01.263Z,67.70
2018-02-07T15:53:30.487Z,67.70
2018-02-07T15:55:59.390Z,67.70
2018-02-07T15:58:28.774Z,67.20
2018-02-07T16:00:56.913Z,67.20
2018-02-07T16:03:25.024Z,66.00
2018-02-07T16:05:53.168Z,66.60
2018-02-07T16:08:21.291Z,66.70
2018-02-07T16:10:50.204Z,67.10
2018-02-07T16:13:18.348Z,67.00
2018-02-07T16:15:47.257Z,68.30
2018-02-07T16:18:15.424Z,67.50
2018-02-07T16:20:44.327Z,68.30
2018-02-07T16:23:12.456Z,68.20
2018-02-07T16:25:40.611Z,69.10
2018-02-07T16:28:08.753Z,69.50
2018-02-07T16:30:36.928Z,70.30
2018-02-07T16:33:05.813Z,71.40
2018-02-07T16:35:33.934Z,71.40
2018-02-07T16:38:02.226Z,71.30
2018-02-07T16:40:30.350Z,70.60
2018-02-07T16:42:58.493Z,71.10
2018-02-07T16:45:27.371Z,71.20
2018-02-07T16:47:55.524Z,71.20
2018-02-07T16:50:23.631Z,72.10
2018-02-07T16:52:52.619Z,71.90
2018-02-07T16:55:20.791Z,71.80
2018-02-07T16:57:49.706Z,72.90
2018-02-07T17:00:17.816Z,72.30
2018-02-07T17:02:45.960Z,72.60
2018-02-07T17:05:14.084Z,72.70
2018-02-07T17:07:42.878Z,73.20
2018-02-07T17:10:11.331Z,73.40
2018-02-07T17:12:39.954Z,73.80
2018-02-07T17:15:08.931Z,74.10
2018-02-07T17:17:37.145Z,74.10
2018-02-07T17:20:06.032Z,74.10
2018-02-07T17:22:35.268Z,73.90
2018-02-07T17:25:03.386Z,73.90
2018-02-07T17:27:31.529Z,74.30
2018-02-07T17:29:59.655Z,74.10
2018-02-07T17:32:27.801Z,73.70
2018-02-07T17:34:55.930Z,74.80
2018-02-07T17:37:24.072Z,75.20
2018-02-07T17:39:52.973Z,74.20
2018-02-07T17:42:21.131Z,74.20
2018-02-07T17:44:50.009Z,74.90
2018-02-07T17:47:18.164Z,74.90
2018-02-07T17:49:46.295Z,75.00
2018-02-07T17:52:14.439Z,75.10
2018-02-07T17:54:42.561Z,75.00
2018-02-07T17:57:10.705Z,74.60
2018-02-07T17:59:40.563Z,74.50
2018-02-07T18:02:08.704Z,74.80
2018-02-07T18:04:36.815Z,75.40
2018-02-07T18:07:04.957Z,75.60
2018-02-07T18:09:33.064Z,76.00
2018-02-07T18:12:01.213Z,76.10
2018-02-07T18:14:29.391Z,76.10
2018-02-07T18:16:57.555Z,76.00
2018-02-07T18:19:25.668Z,75.80
2018-02-07T18:21:53.821Z,75.30
2018-02-07T18:24:22.729Z,76.30
2018-02-07T18:26:50.860Z,76.30
2018-02-07T18:29:18.983Z,76.50
2018-02-07T18:31:47.176Z,76.00
2018-02-07T18:34:16.067Z,76.30
2018-02-07T18:36:44.985Z,76.50
2018-02-07T18:39:13.098Z,76.40
2018-02-07T18:41:41.248Z,76.70
2018-02-07T18:44:09.364Z,76.80
2018-02-07T18:46:37.510Z,76.80
2018-02-07T18:49:05.698Z,76.90
2018-02-07T18:51:33.824Z,77.10
2018-02-07T18:54:01.960Z,77.20
2018-02-07T18:56:30.084Z,77.60
2018-02-07T18:58:58.234Z,77.50
2018-02-07T19:01:27.154Z,76.30
2018-02-07T19:03:55.300Z,76.30
2018-02-07T19:06:24.220Z,76.50
2018-02-07T19:08:52.364Z,76.50
2018-02-07T19:11:20.495Z,76.80
2018-02-07T19:13:48.628Z,77.00
2018-02-07T19:16:16.835Z,77.10
2018-02-07T19:18:45.019Z,77.00
2018-02-07T19:21:13.127Z,76.90
2018-02-07T19:23:42.036Z,76.30
2018-02-07T19:26:10.151Z,76.30
2018-02-07T19:28:38.293Z,76.30
2018-02-07T19:31:06.416Z,76.10
2018-02-07T19:33:34.578Z,76.50
2018-02-07T19:36:08.244Z,76.50
2018-02-07T19:38:39.409Z,76.50
2018-02-07T19:41:08.680Z,76.60
2018-02-07T19:43:37.677Z,77.10
2018-02-07T19:46:05.799Z,77.10
2018-02-07T19:48:33.952Z,77.20
2018-02-07T19:51:02.836Z,76.60
2018-02-07T19:53:32.174Z,76.60
2018-02-07T19:56:00.526Z,76.50
2018-02-07T19:58:28.835Z,77.20
2018-02-07T20:00:56.980Z,77.00
2018-02-07T20:03:25.638Z,76.90
2018-02-07T20:05:54.506Z,76.60
2018-02-07T20:08:22.651Z,76.60
2018-02-07T20:10:50.867Z,76.60
2018-02-07T20:13:19.761Z,76.30
2018-02-07T20:15:48.650Z,76.60
2018-02-07T20:18:17.607Z,76.80
2018-02-07T20:20:46.978Z,76.80
2018-02-07T20:23:15.132Z,76.90
2018-02-07T20:25:44.009Z,77.30
2018-02-07T20:28:12.159Z,77.30
2018-02-07T20:30:40.258Z,77.90
2018-02-07T20:33:08.535Z,77.40
2018-02-07T20:35:36.647Z,77.30
2018-02-07T20:38:07.262Z,76.90
2018-02-07T20:40:36.053Z,76.90
2018-02-07T20:43:06.255Z,76.90
2018-02-07T20:45:34.370Z,76.80
2018-02-07T20:48:02.536Z,77.20
2018-02-07T20:50:31.435Z,77.60
2018-02-07T20:53:00.189Z,76.50
2018-02-07T20:55:28.291Z,76.70
2018-02-07T20:57:56.434Z,76.80
2018-02-07T21:00:24.547Z,77.00
2018-02-07T21:02:52.674Z,77.00
2018-02-07T21:05:20.787Z,76.90
2018-02-07T21:07:49.676Z,77.50
2018-02-07T21:10:18.255Z,77.30
2018-02-07T21:12:46.404Z,77.10
2018-02-07T21:15:14.539Z,77.10
2018-02-07T21:17:43.242Z,77.30
2018-02-07T21:20:12.175Z,77.10
2018-02-07T21:22:40.314Z,77.10
2018-02-07T21:25:08.433Z,77.20
2018-02-07T21:27:36.567Z,77.10
2018-02-07T21:30:04.692Z,77.00
2018-02-07T21:32:33.595Z,77.40
2018-02-07T21:35:01.963Z,77.40
2018-02-07T21:37:30.895Z,76.70
2018-02-07T21:39:59.004Z,76.70
2018-02-07T21:42:28.389Z,77.50
2018-02-07T21:44:56.528Z,77.10
2018-02-07T21:47:24.647Z,77.30
2018-02-07T21:49:52.939Z,77.10
2018-02-07T21:52:22.141Z,76.90
2018-02-07T21:54:50.283Z,77.40
2018-02-07T21:57:18.395Z,77.40
2018-02-07T21:59:48.139Z,77.40
2018-02-07T22:02:16.247Z,77.40
2018-02-07T22:04:44.384Z,77.40
2018-02-07T22:07:12.490Z,77.60
2018-02-07T22:09:40.622Z,77.70
2018-02-07T22:12:08.800Z,77.60
2018-02-07T22:14:36.944Z,78.00
2018-02-07T22:17:05.064Z,78.20
2018-02-07T22:19:33.212Z,77.90
2018-02-07T22:22:01.451Z,77.90
2018-02-07T22:24:29.596Z,77.90
2018-02-07T22:26:57.718Z,78.90
2018-02-07T22:29:26.626Z,78.70
2018-02-07T22:31:54.738Z,78.70
2018-02-07T22:34:22.891Z,78.00
2018-02-07T22:36:51.000Z,77.60
2018-02-07T22:39:19.513Z,77.60
2018-02-07T22:41:47.624Z,78.50
2018-02-07T22:44:15.759Z,79.00
2018-02-07T22:46:46.513Z,78.90
2018-02-07T22:49:14.661Z,78.80
2018-02-07T22:51:42.758Z,79.00
2018-02-07T22:54:11.665Z,78.60
2018-02-07T22:56:39.791Z,78.60
2018-02-07T22:59:07.918Z,78.50
2018-02-07T23:01:36.044Z,78.60
2018-02-07T23:04:04.175Z,78.80
2018-02-07T23:06:32.305Z,78.50
2018-02-07T23:09:02.281Z,78.30
2018-02-07T23:11:32.112Z,78.20
2018-02-07T23:14:00.243Z,78.00
2018-02-07T23:16:29.135Z,78.10
2018-02-07T23:18:58.036Z,78.50
2018-02-07T23:21:26.153Z,78.50
2018-02-07T23:23:54.312Z,78.40
2018-02-07T23:26:22.815Z,78.60
2018-02-07T23:28:50.958Z,78.40
2018-02-07T23:31:19.083Z,78.00
2018-02-07T23:33:47.215Z,78.30
2018-02-07T23:36:16.870Z,78.60
2018-02-07T23:38:46.158Z,79.30
2018-02-07T23:41:14.270Z,78.60
2018-02-07T23:43:42.408Z,78.80
2018-02-07T23:46:10.512Z,78.60
2018-02-07T23:48:38.650Z,78.50
2018-02-07T23:51:06.794Z,78.40
2018-02-07T23:53:35.926Z,78.50
2018-02-07T23:56:04.038Z,78.70
2018-02-07T23:58:32.176Z,78.50
